createdAt,value
2019-05-07T00:02:16.654Z,3.72
2019-05-07T00:04:43.892Z,4.33
2019-05-07T00:07:13.000Z,3.62
2019-05-07T00:09:40.225Z,3.17
2019-05-07T00:12:07.566Z,2.98
2019-05-07T00:14:34.792Z,3.30
2019-05-07T00:17:02.262Z,2.83
2019-05-07T00:19:32.410Z,3.20
2019-05-07T00:22:02.183Z,2.87
2019-05-07T00:24:28.967Z,3.08
2019-05-07T00:26:56.183Z,3.22
2019-05-07T00:29:23.400Z,3.40
2019-05-07T00:31:52.100Z,3.65
2019-05-07T00:34:22.009Z,3.80
2019-05-07T00:37:02.060Z,3.20
2019-05-07T00:39:33.484Z,3.40
2019-05-07T00:42:19.369Z,3.60
2019-05-07T00:44:54.583Z,3.08
2019-05-07T00:47:23.993Z,3.17
2019-05-07T00:49:52.248Z,3.47
2019-05-07T00:52:19.950Z,3.45
2019-05-07T00:54:47.239Z,3.50
2019-05-07T00:57:14.499Z,3.45
2019-05-07T00:59:42.928Z,3.00
2019-05-07T01:02:10.309Z,3.35
2019-05-07T01:04:37.525Z,3.50
2019-05-07T01:07:04.873Z,3.70
2019-05-07T01:09:32.451Z,3.80
2019-05-07T01:11:59.736Z,3.65
2019-05-07T01:14:27.016Z,3.40
2019-05-07T01:16:54.299Z,3.42
2019-05-07T01:19:22.010Z,4.25
2019-05-07T01:21:49.340Z,3.60
2019-05-07T01:24:16.973Z,3.95
2019-05-07T01:26:44.575Z,4.25
2019-05-07T01:29:12.859Z,4.70
2019-05-07T01:31:43.137Z,4.37
2019-05-07T01:34:18.474Z,4.12
2019-05-07T01:36:45.740Z,4.42
2019-05-07T01:39:13.582Z,4.08
2019-05-07T01:41:42.007Z,4.42
2019-05-07T01:44:09.432Z,4.10
2019-05-07T01:46:36.699Z,4.08
2019-05-07T01:49:05.841Z,3.77
2019-05-07T01:51:34.514Z,3.43
2019-05-07T01:54:02.344Z,4.05
2019-05-07T01:56:29.632Z,4.05
2019-05-07T01:58:56.933Z,3.90
2019-05-07T02:01:24.193Z,3.58
2019-05-07T02:03:56.005Z,3.98
2019-05-07T02:06:26.071Z,3.80
2019-05-07T02:08:55.144Z,3.70
2019-05-07T02:11:42.255Z,3.67
2019-05-07T02:14:10.685Z,3.77
2019-05-07T02:16:37.894Z,4.40
2019-05-07T02:19:05.149Z,3.77
2019-05-07T02:21:32.953Z,4.17
2019-05-07T02:24:00.366Z,3.42
2019-05-07T02:26:27.621Z,3.72
2019-05-07T02:28:54.922Z,3.62
2019-05-07T02:31:23.343Z,3.58
2019-05-07T02:33:53.830Z,3.95
2019-05-07T02:36:23.382Z,3.80
2019-05-07T02:38:53.785Z,4.08
2019-05-07T02:41:28.413Z,3.58
2019-05-07T02:43:59.813Z,3.87
2019-05-07T02:46:36.501Z,4.08
2019-05-07T02:49:23.451Z,4.58
2019-05-07T02:52:04.141Z,4.35
2019-05-07T02:54:49.181Z,3.90
2019-05-07T02:57:16.991Z,4.40
2019-05-07T02:59:44.412Z,4.25
2019-05-07T03:02:13.899Z,4.35
2019-05-07T03:04:43.512Z,4.00
2019-05-07T03:07:12.950Z,4.50
2019-05-07T03:09:42.826Z,4.75
2019-05-07T03:12:08.511Z,5.00
2019-05-07T03:14:35.740Z,4.50
2019-05-07T03:17:03.252Z,5.08
2019-05-07T03:19:33.116Z,4.45
2019-05-07T03:22:00.005Z,4.30
2019-05-07T03:24:44.094Z,4.65
2019-05-07T03:27:14.113Z,4.45
2019-05-07T03:29:44.189Z,4.33
2019-05-07T03:32:36.764Z,4.47
2019-05-07T03:35:08.354Z,4.72
2019-05-07T03:37:36.521Z,4.58
2019-05-07T03:40:05.106Z,4.40
2019-05-07T03:42:33.793Z,4.58
2019-05-07T03:45:13.680Z,4.53
2019-05-07T03:47:43.893Z,3.80
2019-05-07T03:50:14.656Z,4.22
2019-05-07T03:52:43.168Z,3.70
2019-05-07T03:55:10.418Z,4.03
2019-05-07T03:57:37.779Z,4.25
2019-05-07T04:00:05.795Z,4.12
2019-05-07T04:02:33.396Z,4.00
2019-05-07T04:05:04.406Z,3.90
2019-05-07T04:07:33.395Z,3.98
2019-05-07T04:09:59.301Z,3.83
2019-05-07T04:12:26.587Z,4.03
2019-05-07T04:14:53.895Z,4.70
2019-05-07T04:17:23.219Z,4.10
2019-05-07T04:19:52.990Z,3.90
2019-05-07T04:22:20.190Z,4.15
2019-05-07T04:25:04.374Z,4.00
2019-05-07T04:27:44.277Z,3.92
2019-05-07T04:30:12.906Z,4.03
2019-05-07T04:32:46.926Z,4.90
2019-05-07T04:35:16.055Z,3.83
2019-05-07T04:37:43.284Z,4.00
2019-05-07T04:40:13.234Z,4.60
2019-05-07T04:42:42.599Z,4.70
2019-05-07T04:45:09.057Z,4.60
2019-05-07T04:47:42.935Z,4.03
2019-05-07T04:50:05.565Z,4.42
2019-05-07T04:52:34.642Z,4.25
2019-05-07T04:55:04.574Z,4.65
2019-05-07T04:57:33.025Z,4.08
2019-05-07T05:00:03.365Z,4.33
2019-05-07T05:02:36.910Z,4.33
2019-05-07T05:05:04.136Z,4.35
2019-05-07T05:07:33.539Z,4.12
2019-05-07T05:10:02.772Z,3.90
2019-05-07T05:12:32.585Z,4.58
2019-05-07T05:14:59.292Z,4.45
2019-05-07T05:17:26.571Z,4.15
2019-05-07T05:19:53.802Z,4.60
2019-05-07T05:22:22.842Z,4.17
2019-05-07T05:25:08.385Z,4.33
2019-05-07T05:27:35.612Z,4.37
2019-05-07T05:30:05.864Z,3.70
2019-05-07T05:32:33.199Z,3.90
2019-05-07T05:35:03.314Z,3.75
2019-05-07T05:37:32.152Z,4.27
2019-05-07T05:40:06.375Z,4.17
2019-05-07T05:42:33.343Z,4.58
2019-05-07T05:45:02.068Z,4.78
2019-05-07T05:47:32.766Z,3.37
2019-05-07T05:50:01.895Z,3.80
2019-05-07T05:52:32.991Z,4.10
2019-05-07T05:55:02.529Z,3.60
2019-05-07T05:57:51.968Z,3.77
2019-05-07T06:00:22.238Z,3.37
2019-05-07T06:03:07.515Z,4.05
2019-05-07T06:05:41.553Z,3.22
2019-05-07T06:08:13.586Z,3.02
2019-05-07T06:10:59.295Z,3.20
2019-05-07T06:13:32.341Z,2.85
2019-05-07T06:16:03.055Z,2.90
2019-05-07T06:18:49.091Z,3.20
2019-05-07T06:21:20.874Z,2.75
2019-05-07T06:23:49.998Z,2.85
2019-05-07T06:26:17.208Z,2.90
2019-05-07T06:28:44.445Z,3.42
2019-05-07T06:31:12.647Z,4.40
2019-05-07T06:33:40.018Z,2.50
2019-05-07T06:36:07.286Z,2.92
2019-05-07T06:38:36.861Z,3.20
2019-05-07T06:41:24.138Z,3.17
2019-05-07T06:43:53.260Z,3.22
2019-05-07T06:46:20.471Z,3.22
2019-05-07T06:48:47.774Z,2.95
2019-05-07T06:51:17.399Z,3.10
2019-05-07T06:53:44.086Z,2.85
2019-05-07T06:56:12.220Z,2.60
2019-05-07T06:58:43.492Z,2.27
2019-05-07T07:03:59.675Z,2.80
2019-05-07T07:06:28.695Z,2.25
2019-05-07T07:09:12.703Z,2.27
2019-05-07T07:11:48.371Z,2.37
2019-05-07T07:14:15.718Z,2.33
2019-05-07T07:16:42.962Z,2.08
2019-05-07T07:19:12.348Z,2.47
2019-05-07T07:21:39.301Z,2.47
2019-05-07T07:24:06.554Z,2.30
2019-05-07T07:26:35.616Z,2.15
2019-05-07T07:29:03.045Z,2.45
2019-05-07T07:31:44.063Z,2.15
2019-05-07T07:34:12.970Z,2.35
2019-05-07T07:36:42.385Z,1.80
2019-05-07T07:39:09.691Z,2.37
2019-05-07T07:41:38.825Z,1.60
2019-05-07T07:44:06.113Z,1.67
2019-05-07T07:46:33.355Z,1.92
2019-05-07T07:49:07.957Z,1.80
2019-05-07T07:51:40.630Z,1.52
2019-05-07T07:53:58.711Z,1.85
2019-05-07T07:56:45.328Z,1.40
2019-05-07T07:59:05.057Z,2.12
2019-05-07T08:01:34.203Z,1.57
2019-05-07T08:04:02.883Z,1.62
2019-05-07T08:06:32.649Z,1.67
2019-05-07T08:09:02.203Z,1.98
2019-05-07T08:11:31.942Z,1.27
2019-05-07T08:13:59.315Z,1.57
2019-05-07T08:16:26.605Z,1.32
2019-05-07T08:18:53.796Z,1.50
2019-05-07T08:21:22.707Z,2.12
2019-05-07T08:23:50.111Z,1.20
2019-05-07T08:26:17.370Z,1.47
2019-05-07T08:28:44.670Z,1.40
2019-05-07T08:31:25.454Z,1.57
2019-05-07T08:34:06.600Z,1.50
2019-05-07T08:39:02.564Z,1.67
2019-05-07T08:41:31.906Z,1.62
2019-05-07T08:44:10.664Z,1.50
2019-05-07T08:46:47.182Z,1.37
2019-05-07T08:49:16.193Z,1.25
2019-05-07T08:51:46.389Z,1.27
2019-05-07T08:54:13.637Z,1.57
2019-05-07T08:56:42.515Z,1.27
2019-05-07T08:59:12.261Z,1.20
2019-05-07T09:01:43.078Z,1.22
2019-05-07T09:04:09.917Z,1.62
2019-05-07T09:06:37.241Z,1.50
2019-05-07T09:09:13.088Z,1.90
2019-05-07T09:11:42.451Z,1.55
2019-05-07T09:14:12.210Z,1.27
2019-05-07T09:16:38.714Z,1.30
2019-05-07T09:19:06.012Z,1.40
2019-05-07T09:21:35.120Z,1.27
2019-05-07T09:24:03.191Z,1.50
2019-05-07T09:26:32.383Z,1.35
2019-05-07T09:29:17.943Z,1.62
2019-05-07T09:31:47.023Z,1.10
2019-05-07T09:34:14.245Z,1.30
2019-05-07T09:36:45.855Z,1.37
2019-05-07T09:39:13.182Z,1.60
2019-05-07T09:41:41.791Z,1.52
2019-05-07T09:44:09.481Z,1.67
2019-05-07T09:46:36.783Z,1.22
2019-05-07T09:49:04.006Z,1.67
2019-05-07T09:51:32.226Z,1.85
2019-05-07T09:53:59.662Z,1.75
2019-05-07T09:56:26.881Z,1.42
2019-05-07T09:58:54.229Z,1.60
2019-05-07T10:01:23.623Z,1.50
2019-05-07T10:03:51.859Z,1.37
2019-05-07T10:06:19.157Z,1.50
2019-05-07T10:08:46.988Z,1.57
2019-05-07T10:11:16.025Z,1.40
2019-05-07T10:13:45.064Z,1.35
2019-05-07T10:16:14.458Z,31.77
2019-05-07T10:18:42.698Z,9.85
2019-05-07T10:21:09.998Z,8.80
2019-05-07T10:23:37.308Z,5.85
2019-05-07T10:26:04.531Z,2.05
2019-05-07T10:28:32.173Z,2.60
2019-05-07T10:30:59.840Z,2.50
2019-05-07T10:33:27.173Z,6.37
2019-05-07T10:35:54.389Z,7.67
2019-05-07T10:38:21.881Z,19.73
2019-05-07T10:40:49.291Z,1.80
2019-05-07T10:43:16.515Z,1.25
2019-05-07T10:45:48.957Z,38.92
2019-05-07T10:48:22.077Z,19.80
2019-05-07T10:50:54.013Z,23.75
2019-05-07T10:53:22.956Z,5.15
2019-05-07T10:55:50.311Z,1.50
2019-05-07T10:58:17.988Z,4.45
2019-05-07T11:00:45.337Z,18.12
2019-05-07T11:03:14.708Z,5.50
2019-05-07T11:05:42.079Z,3.52
2019-05-07T11:08:09.340Z,5.75
2019-05-07T11:10:36.570Z,1.35
2019-05-07T11:13:03.911Z,1.50
2019-05-07T11:15:32.635Z,2.77
2019-05-07T11:18:07.925Z,22.25
2019-05-07T11:20:46.450Z,7.85
2019-05-07T11:23:04.172Z,4.40
2019-05-07T11:25:31.482Z,2.33
2019-05-07T11:27:58.706Z,2.83
2019-05-07T11:30:26.063Z,7.05
2019-05-07T11:32:53.414Z,9.33
2019-05-07T11:35:22.970Z,8.75
2019-05-07T11:37:51.861Z,14.15
2019-05-07T11:40:20.104Z,4.25
2019-05-07T11:43:05.714Z,9.63
2019-05-07T11:45:54.057Z,4.53
2019-05-07T11:48:22.108Z,2.92
2019-05-07T11:51:03.254Z,11.75
2019-05-07T11:53:29.420Z,6.50
2019-05-07T11:55:56.761Z,13.93
2019-05-07T11:58:24.010Z,56.33
2019-05-07T12:00:53.048Z,38.38
2019-05-07T12:03:22.094Z,24.90
2019-05-07T12:05:49.502Z,14.68
2019-05-07T12:08:16.776Z,23.15
2019-05-07T12:10:44.047Z,10.53
2019-05-07T12:13:12.787Z,40.17
2019-05-07T12:15:42.718Z,26.90
2019-05-07T12:18:11.768Z,17.42
2019-05-07T12:20:38.834Z,69.65
2019-05-07T12:23:07.188Z,33.85
2019-05-07T12:25:34.505Z,4.58
2019-05-07T12:28:02.393Z,7.62
2019-05-07T12:30:48.234Z,15.60
2019-05-07T12:33:17.259Z,3.08
2019-05-07T12:35:44.524Z,2.17
2019-05-07T12:38:12.778Z,3.80
2019-05-07T12:40:41.913Z,3.30
2019-05-07T12:43:11.048Z,3.98
2019-05-07T12:45:38.303Z,2.77
2019-05-07T12:48:05.574Z,14.85
2019-05-07T12:50:32.861Z,4.40
2019-05-07T12:53:13.727Z,3.62
2019-05-07T12:55:48.764Z,3.15
2019-05-07T12:58:15.977Z,3.25
2019-05-07T13:00:47.817Z,3.25
2019-05-07T13:03:16.857Z,3.30
2019-05-07T13:05:44.241Z,2.42
2019-05-07T13:08:12.332Z,2.05
2019-05-07T13:10:39.874Z,6.72
2019-05-07T13:13:07.109Z,6.87
2019-05-07T13:15:34.389Z,5.42
2019-05-07T13:18:02.789Z,6.83
2019-05-07T13:20:31.994Z,19.25
2019-05-07T13:22:59.325Z,9.43
2019-05-07T13:25:28.166Z,33.28
2019-05-07T13:27:57.120Z,3.93
2019-05-07T13:30:24.471Z,3.25
2019-05-07T13:32:52.578Z,5.20
2019-05-07T13:35:20.338Z,3.22
2019-05-07T13:37:52.199Z,2.98
2019-05-07T13:40:21.375Z,4.03
2019-05-07T13:42:59.648Z,7.25
2019-05-07T13:45:34.658Z,2.77
2019-05-07T13:48:07.128Z,6.83
2019-05-07T13:50:34.534Z,3.22
2019-05-07T13:53:01.832Z,5.35
2019-05-07T13:55:29.151Z,8.85
2019-05-07T13:57:56.364Z,5.30
2019-05-07T14:00:37.447Z,3.30
2019-05-07T14:05:32.344Z,3.20
2019-05-07T14:07:59.949Z,2.60
2019-05-07T14:10:28.191Z,4.67
2019-05-07T14:16:08.497Z,1.40
2019-05-07T14:18:37.883Z,2.58
2019-05-07T14:21:05.285Z,1.60
2019-05-07T14:23:33.573Z,1.72
2019-05-07T14:26:01.960Z,2.22
2019-05-07T14:28:29.436Z,3.40
2019-05-07T14:30:56.680Z,1.87
2019-05-07T14:33:25.693Z,2.45
2019-05-07T14:36:02.202Z,5.78
2019-05-07T14:38:42.496Z,2.85
2019-05-07T14:41:09.429Z,2.60
2019-05-07T14:43:44.316Z,17.00
2019-05-07T14:46:11.979Z,27.77
2019-05-07T14:48:41.954Z,17.60
2019-05-07T14:51:09.885Z,30.97
2019-05-07T14:53:37.216Z,25.62
2019-05-07T14:56:04.455Z,18.67
2019-05-07T14:58:31.970Z,9.15
2019-05-07T15:00:59.479Z,7.35
2019-05-07T15:03:26.740Z,5.37
2019-05-07T15:05:54.002Z,3.30
2019-05-07T15:08:22.079Z,3.00
2019-05-07T15:10:49.375Z,2.50
2019-05-07T15:13:16.724Z,4.30
2019-05-07T15:15:44.063Z,1.75
2019-05-07T15:18:15.948Z,4.80
2019-05-07T15:20:43.229Z,25.70
2019-05-07T15:23:12.357Z,37.53
2019-05-07T15:25:39.612Z,6.60
2019-05-07T15:28:06.867Z,8.43
2019-05-07T15:30:38.843Z,27.58
2019-05-07T15:33:06.065Z,11.60
2019-05-07T15:35:33.311Z,12.50
2019-05-07T15:38:02.281Z,25.05
2019-05-07T15:40:29.657Z,14.05
2019-05-07T15:42:56.896Z,11.22
2019-05-07T15:45:24.540Z,18.90
2019-05-07T15:47:53.578Z,10.65
2019-05-07T15:50:23.137Z,22.30
2019-05-07T15:52:58.638Z,30.52
2019-05-07T15:57:52.159Z,5.53
2019-05-07T16:00:28.303Z,4.80
2019-05-07T16:03:09.228Z,7.12
2019-05-07T16:05:36.525Z,11.22
2019-05-07T16:08:04.906Z,13.58
2019-05-07T16:10:38.043Z,13.35
2019-05-07T16:13:05.586Z,13.87
2019-05-07T16:15:32.852Z,15.15
2019-05-07T16:18:02.812Z,16.02
2019-05-07T16:20:32.430Z,6.92
2019-05-07T16:23:12.089Z,14.23
2019-05-07T16:25:32.692Z,17.52
2019-05-07T16:28:02.085Z,12.40
2019-05-07T16:30:29.096Z,11.48
2019-05-07T16:32:56.455Z,9.30
2019-05-07T16:35:23.671Z,10.28
2019-05-07T16:37:52.199Z,13.08
2019-05-07T16:40:19.593Z,10.45
2019-05-07T16:42:46.815Z,23.40
2019-05-07T16:45:14.360Z,23.20
2019-05-07T16:47:41.674Z,21.25
2019-05-07T16:50:08.894Z,22.17
2019-05-07T16:52:36.121Z,16.12
2019-05-07T16:55:06.375Z,6.92
2019-05-07T16:57:42.333Z,10.28
2019-05-07T17:00:11.527Z,9.40
2019-05-07T17:02:41.667Z,13.13
2019-05-07T17:05:12.450Z,12.60
2019-05-07T17:07:42.689Z,17.15
2019-05-07T17:10:11.677Z,43.73
2019-05-07T17:12:42.296Z,24.67
2019-05-07T17:15:09.528Z,20.57
2019-05-07T17:17:36.864Z,22.20
2019-05-07T17:20:04.681Z,21.77
2019-05-07T17:22:32.376Z,10.63
2019-05-07T17:25:03.160Z,12.03
2019-05-07T17:27:32.248Z,10.68
2019-05-07T17:30:02.929Z,16.25
2019-05-07T17:32:32.145Z,11.38
2019-05-07T17:34:59.557Z,9.50
2019-05-07T17:37:26.910Z,11.88
2019-05-07T17:39:54.228Z,12.35
2019-05-07T17:42:22.416Z,13.68
2019-05-07T17:44:51.756Z,15.58
2019-05-07T17:47:19.098Z,14.65
2019-05-07T17:49:46.792Z,15.28
2019-05-07T17:52:14.133Z,16.40
2019-05-07T17:54:42.354Z,21.73
2019-05-07T17:57:14.276Z,19.50
2019-05-07T17:59:42.151Z,21.52
2019-05-07T18:02:17.574Z,21.02
2019-05-07T18:04:50.987Z,21.50
2019-05-07T18:07:14.989Z,21.95
2019-05-07T18:09:42.546Z,24.60
2019-05-07T18:12:11.942Z,24.05
2019-05-07T18:14:39.779Z,27.13
2019-05-07T18:17:12.573Z,32.03
2019-05-07T18:19:41.091Z,38.80
2019-05-07T18:22:08.736Z,44.08
2019-05-07T18:24:36.213Z,43.13
2019-05-07T18:27:04.995Z,42.62
2019-05-07T18:29:32.586Z,36.98
2019-05-07T18:32:02.171Z,34.15
2019-05-07T18:34:29.668Z,34.18
2019-05-07T18:36:58.684Z,34.25
2019-05-07T18:39:27.478Z,39.92
2019-05-07T18:41:54.884Z,43.83
2019-05-07T18:44:22.473Z,46.05
2019-05-07T18:46:50.005Z,46.80
2019-05-07T18:49:17.704Z,44.48
2019-05-07T18:51:45.410Z,52.93
2019-05-07T18:54:26.368Z,62.05
2019-05-07T18:56:42.175Z,87.20
2019-05-07T18:59:11.151Z,105.63
2019-05-07T19:01:42.085Z,93.45
2019-05-07T19:04:09.635Z,88.00
2019-05-07T19:06:37.003Z,74.80
2019-05-07T19:09:06.019Z,68.65
2019-05-07T19:11:34.541Z,67.97
2019-05-07T19:14:04.185Z,64.25
2019-05-07T19:16:32.312Z,63.68
2019-05-07T19:19:01.128Z,62.70
2019-05-07T19:21:28.817Z,71.00
2019-05-07T19:23:56.181Z,74.17
2019-05-07T19:26:23.463Z,72.62
2019-05-07T19:28:50.714Z,63.65
2019-05-07T19:31:18.124Z,56.13
2019-05-07T19:33:45.680Z,54.80
2019-05-07T19:36:15.191Z,49.38
2019-05-07T19:38:42.692Z,49.05
2019-05-07T19:41:12.125Z,46.63
2019-05-07T19:43:39.341Z,45.15
2019-05-07T19:46:06.705Z,44.20
2019-05-07T19:48:34.062Z,45.45
2019-05-07T19:51:03.211Z,46.90
2019-05-07T19:53:36.241Z,46.40
2019-05-07T19:56:07.256Z,50.35
2019-05-07T19:58:34.932Z,52.40
2019-05-07T20:01:03.295Z,54.95
2019-05-07T20:03:31.135Z,53.17
2019-05-07T20:05:58.803Z,55.30
2019-05-07T20:08:29.384Z,54.42
2019-05-07T20:10:58.787Z,54.90
2019-05-07T20:13:27.612Z,48.63
2019-05-07T20:15:56.764Z,48.58
2019-05-07T20:18:24.703Z,48.17
2019-05-07T20:20:52.065Z,46.73
2019-05-07T20:23:19.432Z,44.00
2019-05-07T20:25:46.756Z,44.58
2019-05-07T20:28:16.480Z,43.63
2019-05-07T20:30:43.293Z,44.77
2019-05-07T20:33:12.079Z,47.17
2019-05-07T20:35:41.319Z,47.38
2019-05-07T20:38:08.512Z,49.33
2019-05-07T20:40:36.885Z,50.45
2019-05-07T20:43:04.290Z,49.65
2019-05-07T20:45:32.141Z,53.92
2019-05-07T20:47:59.584Z,52.45
2019-05-07T20:50:26.811Z,50.80
2019-05-07T20:52:54.564Z,46.92
2019-05-07T20:55:30.473Z,42.13
2019-05-07T20:57:53.621Z,37.17
2019-05-07T21:00:23.878Z,33.67
2019-05-07T21:02:53.523Z,29.07
2019-05-07T21:05:22.668Z,28.38
2019-05-07T21:07:50.079Z,34.35
2019-05-07T21:10:17.448Z,35.70
2019-05-07T21:12:44.693Z,34.27
2019-05-07T21:15:12.429Z,32.35
2019-05-07T21:17:39.797Z,34.13
2019-05-07T21:20:07.356Z,37.53
2019-05-07T21:22:34.997Z,39.25
2019-05-07T21:25:02.885Z,41.00
2019-05-07T21:27:32.101Z,41.23
2019-05-07T21:29:59.561Z,42.73
2019-05-07T21:32:27.948Z,41.80
2019-05-07T21:34:56.431Z,42.10
2019-05-07T21:37:23.784Z,44.63
2019-05-07T21:39:53.296Z,45.28
2019-05-07T21:42:22.864Z,45.35
2019-05-07T21:44:52.502Z,44.33
2019-05-07T21:47:19.539Z,41.77
2019-05-07T21:49:47.122Z,38.10
2019-05-07T21:52:14.466Z,32.60
2019-05-07T21:54:52.590Z,30.50
2019-05-07T21:57:32.847Z,29.42
2019-05-07T22:00:02.220Z,30.72
2019-05-07T22:02:30.059Z,28.47
2019-05-07T22:04:57.418Z,27.10
2019-05-07T22:07:24.755Z,26.87
2019-05-07T22:09:54.351Z,25.88
2019-05-07T22:12:22.639Z,22.90
2019-05-07T22:14:50.257Z,25.32
2019-05-07T22:17:17.566Z,25.95
2019-05-07T22:19:45.409Z,26.77
2019-05-07T22:22:12.899Z,28.98
2019-05-07T22:24:42.031Z,39.50
2019-05-07T22:27:09.226Z,37.20
2019-05-07T22:29:36.476Z,36.03
2019-05-07T22:32:08.334Z,35.20
2019-05-07T22:34:37.402Z,34.92
2019-05-07T22:37:05.055Z,33.18
2019-05-07T22:39:46.196Z,32.88
2019-05-07T22:42:15.248Z,31.62
2019-05-07T22:44:42.664Z,30.48
2019-05-07T22:47:18.975Z,26.48
2019-05-07T22:49:46.853Z,24.00
2019-05-07T22:52:14.114Z,26.65
2019-05-07T22:54:43.211Z,26.33
2019-05-07T22:57:14.156Z,26.68
2019-05-07T22:59:43.284Z,29.45
2019-05-07T23:02:12.222Z,31.97
2019-05-07T23:04:39.656Z,28.77
2019-05-07T23:07:07.276Z,26.20
2019-05-07T23:09:34.597Z,21.75
2019-05-07T23:12:02.304Z,20.90
2019-05-07T23:14:29.578Z,21.20
2019-05-07T23:16:57.078Z,20.80
2019-05-07T23:19:24.292Z,23.77
2019-05-07T23:21:52.247Z,25.15
2019-05-07T23:24:22.609Z,26.07
2019-05-07T23:26:51.170Z,30.12
2019-05-07T23:29:19.146Z,33.33
2019-05-07T23:31:46.392Z,30.80
2019-05-07T23:34:13.766Z,31.17
2019-05-07T23:36:42.185Z,28.98
2019-05-07T23:39:11.918Z,27.37
2019-05-07T23:41:42.059Z,27.77
2019-05-07T23:44:13.188Z,26.60
2019-05-07T23:46:44.441Z,24.05
2019-05-07T23:49:09.588Z,25.80
2019-05-07T23:51:36.815Z,25.15
2019-05-07T23:54:04.398Z,24.82
2019-05-07T23:56:32.903Z,25.37
2019-05-07T23:59:00.259Z,27.50
